sensor_id;sensor_type;location;lat;lon;timestamp;P1;durP1;ratioP1;P2;durP2;ratioP2
21647;SDS011;10985;54.182;7.890;2022-07-30T00:01:09;8.63;;;6.00;;
21647;SDS011;10985;54.182;7.890;2022-07-30T00:03:35;9.77;;;5.55;;
21647;SDS011;10985;54.182;7.890;2022-07-30T00:06:00;9.65;;;5.28;;
21647;SDS011;10985;54.182;7.890;2022-07-30T00:08:26;11.57;;;5.97;;
21647;SDS011;10985;54.182;7.890;2022-07-30T00:10:51;14.43;;;5.30;;
21647;SDS011;10985;54.182;7.890;2022-07-30T00:13:17;12.60;;;5.50;;
21647;SDS011;10985;54.182;7.890;2022-07-30T00:15:42;8.27;;;5.28;;
21647;SDS011;10985;54.182;7.890;2022-07-30T00:18:08;9.45;;;5.70;;
21647;SDS011;10985;54.182;7.890;2022-07-30T00:20:34;9.43;;;6.95;;
21647;SDS011;10985;54.182;7.890;2022-07-30T00:23:02;12.95;;;6.40;;
21647;SDS011;10985;54.182;7.890;2022-07-30T00:25:28;12.80;;;6.45;;
21647;SDS011;10985;54.182;7.890;2022-07-30T00:27:54;9.98;;;6.78;;
21647;SDS011;10985;54.182;7.890;2022-07-30T00:30:20;18.83;;;6.85;;
21647;SDS011;10985;54.182;7.890;2022-07-30T00:32:46;9.93;;;6.30;;
21647;SDS011;10985;54.182;7.890;2022-07-30T00:35:11;12.60;;;7.78;;
21647;SDS011;10985;54.182;7.890;2022-07-30T00:37:37;13.43;;;7.57;;
21647;SDS011;10985;54.182;7.890;2022-07-30T00:40:03;14.73;;;7.15;;
21647;SDS011;10985;54.182;7.890;2022-07-30T00:42:45;14.95;;;7.20;;
21647;SDS011;10985;54.182;7.890;2022-07-30T00:45:12;13.38;;;7.72;;
21647;SDS011;10985;54.182;7.890;2022-07-30T00:47:39;13.35;;;6.50;;
21647;SDS011;10985;54.182;7.890;2022-07-30T00:50:06;9.07;;;5.70;;
21647;SDS011;10985;54.182;7.890;2022-07-30T00:52:33;10.48;;;6.18;;
21647;SDS011;10985;54.182;7.890;2022-07-30T07:06:38;10.30;;;4.28;;
21647;SDS011;10985;54.182;7.890;2022-07-30T07:09:04;7.97;;;4.45;;
21647;SDS011;10985;54.182;7.890;2022-07-30T07:11:29;9.00;;;4.55;;
21647;SDS011;10985;54.182;7.890;2022-07-30T07:13:55;12.43;;;4.30;;
21647;SDS011;10985;54.182;7.890;2022-07-30T07:16:20;13.98;;;5.22;;
21647;SDS011;10985;54.182;7.890;2022-07-30T07:18:49;11.85;;;4.82;;
21647;SDS011;10985;54.182;7.890;2022-07-30T07:21:16;9.27;;;4.65;;
21647;SDS011;10985;54.182;7.890;2022-07-30T07:23:42;7.65;;;4.47;;
21647;SDS011;10985;54.182;7.890;2022-07-30T07:26:07;9.35;;;3.85;;
21647;SDS011;10985;54.182;7.890;2022-07-30T07:28:33;9.82;;;4.65;;
21647;SDS011;10985;54.182;7.890;2022-07-30T07:30:58;9.82;;;4.88;;
21647;SDS011;10985;54.182;7.890;2022-07-30T07:33:24;7.57;;;4.18;;
21647;SDS011;10985;54.182;7.890;2022-07-30T07:35:49;7.13;;;4.40;;
21647;SDS011;10985;54.182;7.890;2022-07-30T07:38:16;8.35;;;4.55;;
21647;SDS011;10985;54.182;7.890;2022-07-30T07:40:42;9.82;;;4.68;;
21647;SDS011;10985;54.182;7.890;2022-07-30T07:45:39;11.45;;;5.25;;
21647;SDS011;10985;54.182;7.890;2022-07-30T07:48:09;8.40;;;4.80;;
21647;SDS011;10985;54.182;7.890;2022-07-30T07:50:35;11.10;;;5.18;;
21647;SDS011;10985;54.182;7.890;2022-07-30T07:53:00;10.73;;;4.60;;
21647;SDS011;10985;54.182;7.890;2022-07-30T07:55:26;9.63;;;4.85;;
21647;SDS011;10985;54.182;7.890;2022-07-30T07:57:52;7.57;;;5.00;;
21647;SDS011;10985;54.182;7.890;2022-07-30T08:00:17;9.45;;;4.57;;
21647;SDS011;10985;54.182;7.890;2022-07-30T08:02:43;7.85;;;4.35;;
21647;SDS011;10985;54.182;7.890;2022-07-30T08:05:09;9.00;;;4.05;;
21647;SDS011;10985;54.182;7.890;2022-07-30T08:07:36;11.20;;;4.57;;
21647;SDS011;10985;54.182;7.890;2022-07-30T08:10:03;11.63;;;4.53;;
21647;SDS011;10985;54.182;7.890;2022-07-30T08:12:29;9.40;;;4.70;;
21647;SDS011;10985;54.182;7.890;2022-07-30T08:14:55;9.27;;;3.80;;
21647;SDS011;10985;54.182;7.890;2022-07-30T08:17:20;11.90;;;4.22;;
21647;SDS011;10985;54.182;7.890;2022-07-30T08:19:46;8.93;;;3.47;;
21647;SDS011;10985;54.182;7.890;2022-07-30T08:22:11;13.35;;;4.57;;
21647;SDS011;10985;54.182;7.890;2022-07-30T08:24:37;14.43;;;3.85;;
21647;SDS011;10985;54.182;7.890;2022-07-30T08:27:03;6.13;;;3.45;;
21647;SDS011;10985;54.182;7.890;2022-07-30T08:29:28;4.32;;;3.13;;
21647;SDS011;10985;54.182;7.890;2022-07-30T08:31:54;8.63;;;3.30;;
21647;SDS011;10985;54.182;7.890;2022-07-30T08:34:20;9.30;;;3.38;;
21647;SDS011;10985;54.182;7.890;2022-07-30T08:36:45;6.03;;;3.15;;
21647;SDS011;10985;54.182;7.890;2022-07-30T08:39:11;7.60;;;3.22;;
21647;SDS011;10985;54.182;7.890;2022-07-30T08:41:37;6.32;;;3.30;;
21647;SDS011;10985;54.182;7.890;2022-07-30T08:44:03;5.65;;;2.67;;
21647;SDS011;10985;54.182;7.890;2022-07-30T08:46:33;7.63;;;3.03;;
21647;SDS011;10985;54.182;7.890;2022-07-30T08:49:00;5.45;;;2.90;;
21647;SDS011;10985;54.182;7.890;2022-07-30T08:51:26;6.07;;;3.22;;
21647;SDS011;10985;54.182;7.890;2022-07-30T08:53:52;7.30;;;2.90;;
21647;SDS011;10985;54.182;7.890;2022-07-30T08:56:17;5.28;;;3.30;;
21647;SDS011;10985;54.182;7.890;2022-07-30T08:58:43;6.85;;;3.20;;
21647;SDS011;10985;54.182;7.890;2022-07-30T09:01:09;8.13;;;3.38;;
21647;SDS011;10985;54.182;7.890;2022-07-30T09:03:36;5.88;;;2.70;;
21647;SDS011;10985;54.182;7.890;2022-07-30T09:06:03;9.75;;;2.90;;
21647;SDS011;10985;54.182;7.890;2022-07-30T09:08:29;9.07;;;5.32;;
21647;SDS011;10985;54.182;7.890;2022-07-30T09:10:55;4.53;;;2.92;;
21647;SDS011;10985;54.182;7.890;2022-07-30T09:13:32;11.73;;;7.47;;
21647;SDS011;10985;54.182;7.890;2022-07-30T09:15:59;4.25;;;2.90;;
21647;SDS011;10985;54.182;7.890;2022-07-30T09:18:32;8.07;;;2.50;;
21647;SDS011;10985;54.182;7.890;2022-07-30T09:21:22;6.25;;;2.80;;
21647;SDS011;10985;54.182;7.890;2022-07-30T09:24:23;6.45;;;2.83;;
21647;SDS011;10985;54.182;7.890;2022-07-30T09:26:52;4.20;;;2.40;;
21647;SDS011;10985;54.182;7.890;2022-07-30T09:29:26;8.43;;;2.58;;
21647;SDS011;10985;54.182;7.890;2022-07-30T09:31:56;5.93;;;2.90;;
21647;SDS011;10985;54.182;7.890;2022-07-30T09:34:32;8.70;;;3.15;;
21647;SDS011;10985;54.182;7.890;2022-07-30T09:37:03;5.90;;;2.53;;
21647;SDS011;10985;54.182;7.890;2022-07-30T09:39:38;7.57;;;2.53;;
21647;SDS011;10985;54.182;7.890;2022-07-30T09:42:27;5.30;;;2.72;;
21647;SDS011;10985;54.182;7.890;2022-07-30T09:45:04;5.13;;;2.20;;
21647;SDS011;10985;54.182;7.890;2022-07-30T09:47:31;9.25;;;2.80;;
21647;SDS011;10985;54.182;7.890;2022-07-30T09:50:04;4.43;;;3.00;;
21647;SDS011;10985;54.182;7.890;2022-07-30T09:52:35;8.38;;;2.88;;
21647;SDS011;10985;54.182;7.890;2022-07-30T09:55:02;6.63;;;2.42;;
21647;SDS011;10985;54.182;7.890;2022-07-30T09:57:28;4.40;;;2.35;;
21647;SDS011;10985;54.182;7.890;2022-07-30T09:59:54;4.25;;;2.60;;
21647;SDS011;10985;54.182;7.890;2022-07-30T10:02:27;7.35;;;2.75;;
21647;SDS011;10985;54.182;7.890;2022-07-30T10:07:35;7.40;;;3.20;;
21647;SDS011;10985;54.182;7.890;2022-07-30T10:10:00;5.00;;;3.35;;
21647;SDS011;10985;54.182;7.890;2022-07-30T10:12:26;8.57;;;4.68;;
21647;SDS011;10985;54.182;7.890;2022-07-30T10:14:52;10.60;;;3.90;;
21647;SDS011;10985;54.182;7.890;2022-07-30T10:17:20;6.70;;;3.38;;
21647;SDS011;10985;54.182;7.890;2022-07-30T10:19:46;5.60;;;3.53;;
21647;SDS011;10985;54.182;7.890;2022-07-30T10:22:12;7.20;;;2.83;;
21647;SDS011;10985;54.182;7.890;2022-07-30T10:24:38;7.45;;;3.00;;
21647;SDS011;10985;54.182;7.890;2022-07-30T10:27:04;7.10;;;3.30;;
21647;SDS011;10985;54.182;7.890;2022-07-30T10:29:32;5.60;;;3.88;;
21647;SDS011;10985;54.182;7.890;2022-07-30T10:32:01;4.25;;;3.15;;
21647;SDS011;10985;54.182;7.890;2022-07-30T10:34:27;7.32;;;3.70;;
21647;SDS011;10985;54.182;7.890;2022-07-30T10:36:54;4.95;;;3.05;;
21647;SDS011;10985;54.182;7.890;2022-07-30T10:39:26;5.22;;;3.08;;
21647;SDS011;10985;54.182;7.890;2022-07-30T10:42:06;4.80;;;2.60;;
21647;SDS011;10985;54.182;7.890;2022-07-30T10:47:47;5.07;;;2.97;;
21647;SDS011;10985;54.182;7.890;2022-07-30T10:50:16;5.43;;;3.33;;
21647;SDS011;10985;54.182;7.890;2022-07-30T10:52:53;6.43;;;3.17;;
21647;SDS011;10985;54.182;7.890;2022-07-30T10:55:21;4.88;;;3.10;;
21647;SDS011;10985;54.182;7.890;2022-07-30T11:00:33;6.60;;;3.80;;
21647;SDS011;10985;54.182;7.890;2022-07-30T11:05:39;8.57;;;3.08;;
21647;SDS011;10985;54.182;7.890;2022-07-30T11:10:52;7.10;;;3.88;;
21647;SDS011;10985;54.182;7.890;2022-07-30T11:13:17;5.00;;;3.13;;
21647;SDS011;10985;54.182;7.890;2022-07-30T11:16:03;5.82;;;2.78;;
21647;SDS011;10985;54.182;7.890;2022-07-30T11:18:29;6.18;;;3.65;;
21647;SDS011;10985;54.182;7.890;2022-07-30T11:23:43;4.95;;;3.00;;
21647;SDS011;10985;54.182;7.890;2022-07-30T11:26:09;6.60;;;3.90;;
21647;SDS011;10985;54.182;7.890;2022-07-30T11:28:37;6.97;;;3.10;;
21647;SDS011;10985;54.182;7.890;2022-07-30T11:33:50;6.38;;;2.92;;
21647;SDS011;10985;54.182;7.890;2022-07-30T11:36:15;6.55;;;2.60;;
21647;SDS011;10985;54.182;7.890;2022-07-30T11:41:16;5.13;;;2.90;;
21647;SDS011;10985;54.182;7.890;2022-07-30T11:43:42;5.20;;;2.75;;
21647;SDS011;10985;54.182;7.890;2022-07-30T11:46:11;5.93;;;2.65;;
21647;SDS011;10985;54.182;7.890;2022-07-30T11:48:39;4.13;;;2.95;;
21647;SDS011;10985;54.182;7.890;2022-07-30T11:51:06;6.25;;;2.63;;
21647;SDS011;10985;54.182;7.890;2022-07-30T11:53:32;7.65;;;2.65;;
21647;SDS011;10985;54.182;7.890;2022-07-30T11:55:59;7.60;;;3.03;;
21647;SDS011;10985;54.182;7.890;2022-07-30T11:58:28;7.15;;;3.30;;
21647;SDS011;10985;54.182;7.890;2022-07-30T12:00:56;8.52;;;3.15;;
21647;SDS011;10985;54.182;7.890;2022-07-30T12:03:27;5.03;;;2.50;;
21647;SDS011;10985;54.182;7.890;2022-07-30T12:06:07;4.85;;;2.92;;
21647;SDS011;10985;54.182;7.890;2022-07-30T12:08:38;6.43;;;2.65;;
21647;SDS011;10985;54.182;7.890;2022-07-30T12:11:08;5.28;;;2.95;;
21647;SDS011;10985;54.182;7.890;2022-07-30T12:13:34;6.47;;;3.13;;
21647;SDS011;10985;54.182;7.890;2022-07-30T12:16:02;4.68;;;2.40;;
21647;SDS011;10985;54.182;7.890;2022-07-30T12:18:32;7.78;;;3.67;;
21647;SDS011;10985;54.182;7.890;2022-07-30T12:23:33;5.43;;;3.00;;
21647;SDS011;10985;54.182;7.890;2022-07-30T12:26:00;6.40;;;3.22;;
21647;SDS011;10985;54.182;7.890;2022-07-30T12:28:27;5.57;;;2.70;;
21647;SDS011;10985;54.182;7.890;2022-07-30T12:30:55;4.45;;;2.80;;
21647;SDS011;10985;54.182;7.890;2022-07-30T12:33:22;4.82;;;2.95;;
21647;SDS011;10985;54.182;7.890;2022-07-30T12:35:55;5.95;;;3.13;;
21647;SDS011;10985;54.182;7.890;2022-07-30T12:38:22;3.67;;;2.60;;
21647;SDS011;10985;54.182;7.890;2022-07-30T12:41:10;7.43;;;3.35;;
21647;SDS011;10985;54.182;7.890;2022-07-30T12:43:44;11.95;;;4.00;;
21647;SDS011;10985;54.182;7.890;2022-07-30T12:46:16;5.75;;;3.03;;
21647;SDS011;10985;54.182;7.890;2022-07-30T12:51:18;8.00;;;4.03;;
21647;SDS011;10985;54.182;7.890;2022-07-30T12:53:44;6.20;;;3.08;;
21647;SDS011;10985;54.182;7.890;2022-07-30T12:58:37;7.45;;;3.58;;
21647;SDS011;10985;54.182;7.890;2022-07-30T13:01:03;8.20;;;3.28;;
21647;SDS011;10985;54.182;7.890;2022-07-30T13:03:29;6.88;;;4.97;;
21647;SDS011;10985;54.182;7.890;2022-07-30T13:06:11;7.45;;;3.78;;
21647;SDS011;10985;54.182;7.890;2022-07-30T13:08:55;6.50;;;3.45;;
21647;SDS011;10985;54.182;7.890;2022-07-30T13:11:23;7.43;;;3.53;;
21647;SDS011;10985;54.182;7.890;2022-07-30T13:14:03;7.68;;;3.92;;
21647;SDS011;10985;54.182;7.890;2022-07-30T13:16:32;8.98;;;3.85;;
21647;SDS011;10985;54.182;7.890;2022-07-30T13:18:59;5.32;;;3.63;;
21647;SDS011;10985;54.182;7.890;2022-07-30T13:21:27;7.47;;;4.20;;
21647;SDS011;10985;54.182;7.890;2022-07-30T13:23:52;5.80;;;4.03;;
21647;SDS011;10985;54.182;7.890;2022-07-30T13:26:18;7.82;;;3.60;;
21647;SDS011;10985;54.182;7.890;2022-07-30T13:28:43;5.93;;;4.15;;
21647;SDS011;10985;54.182;7.890;2022-07-30T13:31:10;7.32;;;3.85;;
21647;SDS011;10985;54.182;7.890;2022-07-30T13:33:36;8.88;;;4.05;;
21647;SDS011;10985;54.182;7.890;2022-07-30T13:36:02;4.85;;;4.20;;
21647;SDS011;10985;54.182;7.890;2022-07-30T13:38:28;6.75;;;4.05;;
21647;SDS011;10985;54.182;7.890;2022-07-30T13:40:53;5.80;;;3.60;;
21647;SDS011;10985;54.182;7.890;2022-07-30T13:43:21;7.07;;;4.18;;
21647;SDS011;10985;54.182;7.890;2022-07-30T13:45:47;8.93;;;3.70;;
21647;SDS011;10985;54.182;7.890;2022-07-30T13:48:14;8.27;;;3.72;;
21647;SDS011;10985;54.182;7.890;2022-07-30T13:50:40;5.20;;;3.80;;
21647;SDS011;10985;54.182;7.890;2022-07-30T13:53:06;9.70;;;4.43;;
21647;SDS011;10985;54.182;7.890;2022-07-30T13:55:32;6.35;;;3.72;;
21647;SDS011;10985;54.182;7.890;2022-07-30T13:57:59;6.72;;;4.15;;
21647;SDS011;10985;54.182;7.890;2022-07-30T14:00:25;9.48;;;4.38;;
21647;SDS011;10985;54.182;7.890;2022-07-30T14:02:56;7.50;;;4.03;;
21647;SDS011;10985;54.182;7.890;2022-07-30T14:05:25;8.57;;;4.15;;
21647;SDS011;10985;54.182;7.890;2022-07-30T14:07:52;7.82;;;4.55;;
21647;SDS011;10985;54.182;7.890;2022-07-30T14:10:17;10.63;;;4.65;;
21647;SDS011;10985;54.182;7.890;2022-07-30T14:12:46;6.63;;;3.90;;
21647;SDS011;10985;54.182;7.890;2022-07-30T14:15:12;9.48;;;4.15;;
21647;SDS011;10985;54.182;7.890;2022-07-30T14:17:37;7.70;;;3.92;;
21647;SDS011;10985;54.182;7.890;2022-07-30T14:20:03;7.90;;;4.20;;
21647;SDS011;10985;54.182;7.890;2022-07-30T14:22:29;9.43;;;4.30;;
21647;SDS011;10985;54.182;7.890;2022-07-30T14:24:54;11.15;;;4.60;;
21647;SDS011;10985;54.182;7.890;2022-07-30T14:27:20;12.45;;;4.10;;
21647;SDS011;10985;54.182;7.890;2022-07-30T14:29:45;9.98;;;3.80;;
21647;SDS011;10985;54.182;7.890;2022-07-30T14:32:11;7.28;;;4.22;;
21647;SDS011;10985;54.182;7.890;2022-07-30T14:34:37;6.20;;;4.07;;
21647;SDS011;10985;54.182;7.890;2022-07-30T14:37:02;7.18;;;4.10;;
21647;SDS011;10985;54.182;7.890;2022-07-30T14:39:28;7.95;;;4.75;;
21647;SDS011;10985;54.182;7.890;2022-07-30T14:41:53;12.68;;;5.13;;
21647;SDS011;10985;54.182;7.890;2022-07-30T14:44:20;9.50;;;4.50;;
21647;SDS011;10985;54.182;7.890;2022-07-30T14:46:45;9.27;;;4.50;;
21647;SDS011;10985;54.182;7.890;2022-07-30T14:49:11;7.70;;;4.60;;
21647;SDS011;10985;54.182;7.890;2022-07-30T14:51:36;6.75;;;4.30;;
21647;SDS011;10985;54.182;7.890;2022-07-30T14:54:02;6.43;;;4.45;;
21647;SDS011;10985;54.182;7.890;2022-07-30T14:56:28;11.30;;;5.43;;
21647;SDS011;10985;54.182;7.890;2022-07-30T14:58:53;11.38;;;5.18;;
21647;SDS011;10985;54.182;7.890;2022-07-30T15:01:19;7.78;;;4.43;;
21647;SDS011;10985;54.182;7.890;2022-07-30T15:03:45;9.15;;;4.97;;
21647;SDS011;10985;54.182;7.890;2022-07-30T15:06:11;9.45;;;5.57;;
21647;SDS011;10985;54.182;7.890;2022-07-30T15:08:38;9.77;;;5.15;;
21647;SDS011;10985;54.182;7.890;2022-07-30T15:11:04;10.82;;;5.15;;
21647;SDS011;10985;54.182;7.890;2022-07-30T15:13:30;9.32;;;5.85;;
21647;SDS011;10985;54.182;7.890;2022-07-30T15:15:55;12.25;;;6.25;;
21647;SDS011;10985;54.182;7.890;2022-07-30T15:18:21;13.75;;;6.55;;
21647;SDS011;10985;54.182;7.890;2022-07-30T15:20:46;13.00;;;5.88;;
21647;SDS011;10985;54.182;7.890;2022-07-30T15:23:12;10.40;;;7.05;;
21647;SDS011;10985;54.182;7.890;2022-07-30T15:25:38;13.88;;;6.88;;
21647;SDS011;10985;54.182;7.890;2022-07-30T15:28:04;11.77;;;6.38;;
21647;SDS011;10985;54.182;7.890;2022-07-30T15:30:30;8.45;;;5.82;;
21647;SDS011;10985;54.182;7.890;2022-07-30T15:32:55;14.18;;;6.22;;
21647;SDS011;10985;54.182;7.890;2022-07-30T15:35:21;12.57;;;5.75;;
21647;SDS011;10985;54.182;7.890;2022-07-30T15:37:46;12.27;;;7.10;;
21647;SDS011;10985;54.182;7.890;2022-07-30T15:40:12;14.63;;;6.40;;
21647;SDS011;10985;54.182;7.890;2022-07-30T15:42:38;8.27;;;5.28;;
21647;SDS011;10985;54.182;7.890;2022-07-30T15:45:04;9.85;;;4.60;;
21647;SDS011;10985;54.182;7.890;2022-07-30T15:47:31;10.60;;;4.80;;
21647;SDS011;10985;54.182;7.890;2022-07-30T15:49:56;11.77;;;4.93;;
21647;SDS011;10985;54.182;7.890;2022-07-30T15:52:22;11.73;;;4.88;;
21647;SDS011;10985;54.182;7.890;2022-07-30T15:54:47;11.48;;;4.60;;
21647;SDS011;10985;54.182;7.890;2022-07-30T15:57:13;9.93;;;5.13;;
21647;SDS011;10985;54.182;7.890;2022-07-30T15:59:39;9.15;;;5.90;;
21647;SDS011;10985;54.182;7.890;2022-07-30T16:02:04;17.33;;;8.35;;
21647;SDS011;10985;54.182;7.890;2022-07-30T16:04:30;12.98;;;5.93;;
21647;SDS011;10985;54.182;7.890;2022-07-30T16:06:57;11.50;;;5.53;;
21647;SDS011;10985;54.182;7.890;2022-07-30T16:09:23;10.55;;;6.30;;
21647;SDS011;10985;54.182;7.890;2022-07-30T16:11:48;8.27;;;5.15;;
21647;SDS011;10985;54.182;7.890;2022-07-30T16:14:14;8.15;;;5.22;;
21647;SDS011;10985;54.182;7.890;2022-07-30T16:16:40;11.70;;;5.43;;
21647;SDS011;10985;54.182;7.890;2022-07-30T16:19:06;12.45;;;5.25;;
21647;SDS011;10985;54.182;7.890;2022-07-30T16:21:32;11.65;;;5.78;;
21647;SDS011;10985;54.182;7.890;2022-07-30T16:23:58;10.48;;;6.90;;
21647;SDS011;10985;54.182;7.890;2022-07-30T16:26:24;12.65;;;6.55;;
21647;SDS011;10985;54.182;7.890;2022-07-30T16:28:49;10.48;;;5.53;;
21647;SDS011;10985;54.182;7.890;2022-07-30T16:31:15;10.52;;;4.50;;
21647;SDS011;10985;54.182;7.890;2022-07-30T16:33:41;8.80;;;4.18;;
21647;SDS011;10985;54.182;7.890;2022-07-30T16:36:07;7.28;;;4.60;;
21647;SDS011;10985;54.182;7.890;2022-07-30T16:38:32;9.00;;;4.90;;
21647;SDS011;10985;54.182;7.890;2022-07-30T16:40:58;10.85;;;4.78;;
21647;SDS011;10985;54.182;7.890;2022-07-30T16:43:23;11.63;;;5.05;;
21647;SDS011;10985;54.182;7.890;2022-07-30T16:45:49;9.60;;;5.47;;
21647;SDS011;10985;54.182;7.890;2022-07-30T16:48:14;8.85;;;5.10;;
21647;SDS011;10985;54.182;7.890;2022-07-30T16:50:40;14.30;;;5.32;;
21647;SDS011;10985;54.182;7.890;2022-07-30T16:53:07;8.98;;;5.50;;
21647;SDS011;10985;54.182;7.890;2022-07-30T16:55:33;10.98;;;5.47;;
21647;SDS011;10985;54.182;7.890;2022-07-30T16:57:59;11.15;;;6.43;;
21647;SDS011;10985;54.182;7.890;2022-07-30T17:00:25;10.98;;;6.25;;
21647;SDS011;10985;54.182;7.890;2022-07-30T17:02:50;10.35;;;6.13;;
21647;SDS011;10985;54.182;7.890;2022-07-30T17:05:16;8.95;;;6.05;;
21647;SDS011;10985;54.182;7.890;2022-07-30T17:07:42;9.68;;;6.55;;
21647;SDS011;10985;54.182;7.890;2022-07-30T17:10:07;11.93;;;6.32;;
21647;SDS011;10985;54.182;7.890;2022-07-30T17:12:33;16.15;;;6.88;;
21647;SDS011;10985;54.182;7.890;2022-07-30T17:14:59;16.13;;;6.53;;
21647;SDS011;10985;54.182;7.890;2022-07-30T17:17:24;10.00;;;6.10;;
21647;SDS011;10985;54.182;7.890;2022-07-30T17:19:50;11.05;;;6.72;;
21647;SDS011;10985;54.182;7.890;2022-07-30T17:22:16;15.20;;;6.57;;
21647;SDS011;10985;54.182;7.890;2022-07-30T17:24:41;12.50;;;5.80;;
21647;SDS011;10985;54.182;7.890;2022-07-30T17:27:07;7.88;;;5.85;;
21647;SDS011;10985;54.182;7.890;2022-07-30T17:29:33;8.90;;;6.45;;
21647;SDS011;10985;54.182;7.890;2022-07-30T17:31:58;11.30;;;6.22;;
21647;SDS011;10985;54.182;7.890;2022-07-30T17:34:24;12.75;;;7.10;;
21647;SDS011;10985;54.182;7.890;2022-07-30T17:36:49;13.52;;;7.20;;
21647;SDS011;10985;54.182;7.890;2022-07-30T17:39:15;10.70;;;7.10;;
21647;SDS011;10985;54.182;7.890;2022-07-30T17:41:41;12.63;;;6.88;;
21647;SDS011;10985;54.182;7.890;2022-07-30T17:44:06;11.65;;;5.97;;
21647;SDS011;10985;54.182;7.890;2022-07-30T17:46:32;15.35;;;7.05;;
21647;SDS011;10985;54.182;7.890;2022-07-30T17:48:59;11.43;;;6.50;;
21647;SDS011;10985;54.182;7.890;2022-07-30T17:51:25;10.82;;;6.35;;
21647;SDS011;10985;54.182;7.890;2022-07-30T17:53:51;11.95;;;6.57;;
21647;SDS011;10985;54.182;7.890;2022-07-30T17:56:16;11.20;;;6.70;;
21647;SDS011;10985;54.182;7.890;2022-07-30T17:58:42;11.48;;;6.82;;
21647;SDS011;10985;54.182;7.890;2022-07-30T18:01:07;13.30;;;7.78;;
21647;SDS011;10985;54.182;7.890;2022-07-30T18:03:33;11.35;;;7.68;;
21647;SDS011;10985;54.182;7.890;2022-07-30T18:05:58;13.57;;;7.82;;
21647;SDS011;10985;54.182;7.890;2022-07-30T18:08:24;9.35;;;7.65;;
21647;SDS011;10985;54.182;7.890;2022-07-30T18:10:53;12.35;;;7.88;;
21647;SDS011;10985;54.182;7.890;2022-07-30T18:13:19;11.88;;;8.85;;
21647;SDS011;10985;54.182;7.890;2022-07-30T18:15:44;16.45;;;8.82;;
21647;SDS011;10985;54.182;7.890;2022-07-30T18:18:10;9.82;;;7.43;;
21647;SDS011;10985;54.182;7.890;2022-07-30T18:20:36;18.30;;;7.88;;
21647;SDS011;10985;54.182;7.890;2022-07-30T18:23:05;10.50;;;7.00;;
21647;SDS011;10985;54.182;7.890;2022-07-30T18:25:31;17.70;;;8.27;;
21647;SDS011;10985;54.182;7.890;2022-07-30T18:27:57;14.52;;;8.63;;
21647;SDS011;10985;54.182;7.890;2022-07-30T18:30:23;14.20;;;7.72;;
21647;SDS011;10985;54.182;7.890;2022-07-30T18:32:48;13.32;;;8.35;;
21647;SDS011;10985;54.182;7.890;2022-07-30T18:35:14;11.18;;;7.38;;
21647;SDS011;10985;54.182;7.890;2022-07-30T18:37:43;19.08;;;8.52;;
21647;SDS011;10985;54.182;7.890;2022-07-30T18:40:10;14.82;;;7.25;;
21647;SDS011;10985;54.182;7.890;2022-07-30T18:42:37;13.68;;;7.65;;
21647;SDS011;10985;54.182;7.890;2022-07-30T18:45:02;11.55;;;7.45;;
21647;SDS011;10985;54.182;7.890;2022-07-30T18:47:28;10.38;;;7.57;;
21647;SDS011;10985;54.182;7.890;2022-07-30T18:49:54;12.50;;;7.70;;
21647;SDS011;10985;54.182;7.890;2022-07-30T18:52:20;11.10;;;7.30;;
21647;SDS011;10985;54.182;7.890;2022-07-30T18:54:46;12.43;;;8.32;;
21647;SDS011;10985;54.182;7.890;2022-07-30T18:57:12;11.07;;;8.25;;
21647;SDS011;10985;54.182;7.890;2022-07-30T18:59:38;12.45;;;8.60;;
21647;SDS011;10985;54.182;7.890;2022-07-30T19:02:03;16.65;;;8.63;;
21647;SDS011;10985;54.182;7.890;2022-07-30T19:04:31;9.63;;;7.95;;
21647;SDS011;10985;54.182;7.890;2022-07-30T19:06:56;12.35;;;7.38;;
21647;SDS011;10985;54.182;7.890;2022-07-30T19:09:22;14.13;;;7.53;;
21647;SDS011;10985;54.182;7.890;2022-07-30T19:11:48;18.15;;;8.07;;
21647;SDS011;10985;54.182;7.890;2022-07-30T19:14:13;13.60;;;7.03;;
21647;SDS011;10985;54.182;7.890;2022-07-30T19:16:40;7.82;;;6.40;;
21647;SDS011;10985;54.182;7.890;2022-07-30T19:19:07;11.50;;;6.45;;
21647;SDS011;10985;54.182;7.890;2022-07-30T19:21:33;11.85;;;5.75;;
21647;SDS011;10985;54.182;7.890;2022-07-30T19:23:58;7.70;;;6.50;;
21647;SDS011;10985;54.182;7.890;2022-07-30T19:26:24;12.25;;;7.28;;
21647;SDS011;10985;54.182;7.890;2022-07-30T19:28:49;9.00;;;5.22;;
21647;SDS011;10985;54.182;7.890;2022-07-30T19:31:15;7.15;;;4.38;;
21647;SDS011;10985;54.182;7.890;2022-07-30T19:33:40;8.23;;;5.40;;
21647;SDS011;10985;54.182;7.890;2022-07-30T19:36:06;10.32;;;5.00;;
21647;SDS011;10985;54.182;7.890;2022-07-30T19:38:32;10.07;;;4.95;;
21647;SDS011;10985;54.182;7.890;2022-07-30T19:40:58;9.52;;;5.10;;
21647;SDS011;10985;54.182;7.890;2022-07-30T19:43:24;8.50;;;4.32;;
21647;SDS011;10985;54.182;7.890;2022-07-30T19:45:49;7.15;;;4.63;;
21647;SDS011;10985;54.182;7.890;2022-07-30T19:48:16;8.93;;;5.45;;
21647;SDS011;10985;54.182;7.890;2022-07-30T19:50:41;10.10;;;5.13;;
21647;SDS011;10985;54.182;7.890;2022-07-30T19:53:07;5.60;;;3.88;;
21647;SDS011;10985;54.182;7.890;2022-07-30T19:55:32;7.38;;;3.72;;
21647;SDS011;10985;54.182;7.890;2022-07-30T19:58:01;13.88;;;4.72;;
21647;SDS011;10985;54.182;7.890;2022-07-30T20:00:27;5.15;;;3.40;;
21647;SDS011;10985;54.182;7.890;2022-07-30T20:02:53;6.93;;;3.75;;
21647;SDS011;10985;54.182;7.890;2022-07-30T20:05:19;8.73;;;3.40;;
21647;SDS011;10985;54.182;7.890;2022-07-30T20:07:44;7.40;;;2.65;;
21647;SDS011;10985;54.182;7.890;2022-07-30T20:10:11;9.25;;;3.58;;
21647;SDS011;10985;54.182;7.890;2022-07-30T20:12:39;6.75;;;3.22;;
21647;SDS011;10985;54.182;7.890;2022-07-30T20:15:05;8.70;;;2.92;;
21647;SDS011;10985;54.182;7.890;2022-07-30T20:17:32;6.57;;;3.30;;
21647;SDS011;10985;54.182;7.890;2022-07-30T20:19:58;4.80;;;3.17;;
21647;SDS011;10985;54.182;7.890;2022-07-30T20:22:24;5.70;;;3.10;;
21647;SDS011;10985;54.182;7.890;2022-07-30T20:24:50;6.78;;;2.67;;
21647;SDS011;10985;54.182;7.890;2022-07-30T20:27:16;3.60;;;2.50;;
21647;SDS011;10985;54.182;7.890;2022-07-30T20:29:42;6.53;;;2.67;;
21647;SDS011;10985;54.182;7.890;2022-07-30T20:32:08;2.95;;;2.55;;
21647;SDS011;10985;54.182;7.890;2022-07-30T20:34:34;3.85;;;2.70;;
21647;SDS011;10985;54.182;7.890;2022-07-30T20:37:02;5.13;;;3.47;;
